^^
Meteo Knjazevac Station Historical Data
Daily Summary for November 21, 2021 Units:  English    Metric   Both
Daily Weekly Monthly Yearly Custom
  High: Low: Average:
Temperature: 64.2 °F 38.1 °F 49.5 °F
Dew Point: 48.7 °F 36.4 °F 42.4 °F
Humidity: 96% 54% 78%
Wind Speed: 7mph 0mph 2.1mph
Wind Gust: 12mph - -
Wind- - SW
Pressure: 30.19 in 29.97 in -
Precipitation: 0.00 in    
Historical Graphs
 
 
Tabular Data for November 21, 2021
Time Temperature Dew Point Pressure Wind Wind Speed Wind Gust Humidity Rainfall Rate (Hourly) solar Conditions
00:00 40.3 °F 39 °F 30.19 in Calm   3 mph 95% 0.00 in 0 W/m2
00:10 40.5 °F 39.1 °F 30.19 in North 1 mph 2 mph 95% 0.00 in 0 W/m2
00:20 40.7 °F 39.4 °F 30.19 in Calm   2 mph 95% 0.00 in 0 W/m2
00:30 40.9 °F 39.5 °F 30.19 in Calm   2 mph 95% 0.00 in 0 W/m2
00:40 41.4 °F 40 °F 30.19 in Calm   3 mph 95% 0.00 in 0 W/m2
00:50 41.5 °F 40.2 °F 30.19 in ESE 1 mph 3 mph 95% 0.00 in 0 W/m2
01:00 41.8 °F 40.4 °F 30.19 in ENE 1 mph 2 mph 95% 0.00 in 0 W/m2
01:10 42.1 °F 40.8 °F 30.18 in SE 2 mph 3 mph 95% 0.00 in 0 W/m2
01:20 42.4 °F 41.1 °F 30.18 in Calm   3 mph 95% 0.00 in 0 W/m2
01:30 42.6 °F 41.3 °F 30.18 in Calm   2 mph 95% 0.00 in 0 W/m2
01:40 42.8 °F 41.5 °F 30.18 in Calm   2 mph 95% 0.00 in 0 W/m2
01:50 43 °F 41.4 °F 30.18 in Calm   2 mph 94% 0.00 in 0 W/m2
02:00 42.8 °F 41.2 °F 30.17 in West 1 mph 3 mph 94% 0.00 in 0 W/m2
02:10 42.8 °F 40.9 °F 30.17 in Calm   2 mph 93% 0.00 in 0 W/m2
02:20 42.9 °F 41.2 °F 30.17 in Calm   1 mph 94% 0.00 in 0 W/m2
02:30 43 °F 41.1 °F 30.16 in Calm   2 mph 93% 0.00 in 0 W/m2
02:40 43 °F 41.1 °F 30.17 in Calm   3 mph 93% 0.00 in 0 W/m2
02:50 42.8 °F 40.6 °F 30.16 in Calm   2 mph 92% 0.00 in 0 W/m2
03:00 42.6 °F 40.7 °F 30.16 in NW 1 mph 2 mph 93% 0.00 in 0 W/m2
03:10 42.4 °F 40.6 °F 30.16 in Calm   2 mph 93% 0.00 in 0 W/m2
03:20 42.4 °F 40.6 °F 30.16 in Calm   1 mph 93% 0.00 in 0 W/m2
03:30 42.6 °F 41 °F 30.16 in Calm   2 mph 94% 0.00 in 0 W/m2
03:40 42.8 °F 41.2 °F 30.15 in NNE 1 mph 2 mph 94% 0.00 in 0 W/m2
03:50 42.8 °F 41.2 °F 30.15 in Calm   2 mph 94% 0.00 in 0 W/m2
04:00 42.8 °F 41.2 °F 30.15 in Calm     94% 0.00 in 0 W/m2
04:10 43 °F 41.4 °F 30.15 in Calm   2 mph 94% 0.00 in 0 W/m2
04:20 43.2 °F 41.6 °F 30.15 in Calm   1 mph 94% 0.00 in 0 W/m2
04:30 43.2 °F 41.6 °F 30.15 in Calm   1 mph 94% 0.00 in 0 W/m2
04:40 43.2 °F 41.3 °F 30.15 in Calm   2 mph 93% 0.00 in 0 W/m2
04:50 43.2 °F 41.6 °F 30.14 in Calm   2 mph 94% 0.00 in 0 W/m2
05:00 43.2 °F 41.3 °F 30.14 in Calm   2 mph 93% 0.00 in 0 W/m2
05:10 42.8 °F 40.9 °F 30.14 in Calm   2 mph 93% 0.00 in 0 W/m2
05:20 42.4 °F 40.6 °F 30.14 in WNW 2 mph 2 mph 93% 0.00 in 0 W/m2
05:30 41.8 °F 40 °F 30.13 in West 3 mph 3 mph 93% 0.00 in 0 W/m2
05:40 41.4 °F 39.8 °F 30.13 in West 2 mph 3 mph 94% 0.00 in 0 W/m2
05:50 41 °F 39.4 °F 30.13 in WNW 2 mph 5 mph 94% 0.00 in 0 W/m2
06:00 40.8 °F 39.2 °F 30.13 in West 3 mph 5 mph 94% 0.00 in 0 W/m2
06:10 40.5 °F 39.1 °F 30.13 in West 5 mph 6 mph 95% 0.00 in 0 W/m2
06:20 40.3 °F 39 °F 30.13 in West 3 mph 7 mph 95% 0.00 in 0 W/m2
06:30 39.9 °F 38.6 °F 30.13 in West 3 mph 6 mph 95% 0.00 in 0 W/m2
06:40 39.2 °F 37.6 °F 30.13 in West 2 mph 5 mph 94% 0.00 in 8 W/m2
06:50 38.5 °F 36.6 °F 30.13 in West 3 mph 5 mph 93% 0.00 in 11 W/m2
07:00 38.1 °F 36.5 °F 30.13 in West 3 mph 5 mph 94% 0.00 in 27 W/m2
07:10 38.3 °F 37.3 °F 30.13 in West 3 mph 5 mph 96% 0.00 in 43 W/m2
07:20 38.3 °F 37.3 °F 30.13 in West 3 mph 5 mph 96% 0.00 in 61 W/m2
07:30 38.5 °F 37.4 °F 30.13 in West 2 mph 5 mph 96% 0.00 in 81 W/m2
07:40 39.2 °F 38.2 °F 30.13 in WNW 2 mph 4 mph 96% 0.00 in 102 W/m2
07:50 40.1 °F 39.1 °F 30.12 in West 2 mph 3 mph 96% 0.00 in 124 W/m2
08:00 40.9 °F 39.6 °F 30.12 in Calm   2 mph 95% 0.00 in 144 W/m2
08:10 41.9 °F 40.6 °F 30.12 in WNW 1 mph 2 mph 95% 0.00 in 167 W/m2
08:20 43.2 °F 41.6 °F 30.11 in West 1 mph 2 mph 94% 0.00 in 188 W/m2
08:30 44.5 °F 42.6 °F 30.11 in WSW 1 mph 4 mph 93% 0.00 in 208 W/m2
08:40 45.6 °F 43.1 °F 30.10 in SW 1 mph 2 mph 91% 0.00 in 228 W/m2
08:50 47 °F 44.2 °F 30.10 in WSW 1 mph 3 mph 90% 0.00 in 246 W/m2
09:00 48.4 °F 44.4 °F 30.10 in WNW 2 mph 4 mph 86% 0.00 in 264 W/m2
09:10 49.3 °F 44.7 °F 30.10 in West 2 mph 4 mph 84% 0.00 in 281 W/m2
09:20 50.4 °F 45.4 °F 30.10 in SW 1 mph 4 mph 83% 0.00 in 297 W/m2
09:30 51.3 °F 45.6 °F 30.09 in West 1 mph 3 mph 81% 0.00 in 312 W/m2
09:40 52.2 °F 45.8 °F 30.09 in NW 2 mph 6 mph 79% 0.00 in 326 W/m2
09:50 52.9 °F 46.2 °F 30.09 in West 2 mph 5 mph 78% 0.00 in 339 W/m2
10:00 53.7 °F 46.6 °F 30.08 in West 1 mph 4 mph 77% 0.00 in 350 W/m2
10:10 54.7 °F 47.3 °F 30.08 in South 2 mph 5 mph 76% 0.00 in 360 W/m2
10:20 55.4 °F 47.2 °F 30.08 in SW 3 mph 7 mph 74% 0.00 in 369 W/m2
10:30 56.1 °F 47.6 °F 30.07 in SW 3 mph 7 mph 73% 0.00 in 376 W/m2
10:40 56.7 °F 47.8 °F 30.06 in SW 5 mph 6 mph 72% 0.00 in 382 W/m2
10:50 57.6 °F 47.9 °F 30.06 in SW 3 mph 7 mph 70% 0.00 in 386 W/m2
11:00 58.5 °F 48.4 °F 30.05 in SW 2 mph 6 mph 69% 0.00 in 389 W/m2
11:10 59.4 °F 48.1 °F 30.05 in SW 5 mph 8 mph 66% 0.00 in 390 W/m2
11:20 60 °F 48.2 °F 30.04 in WSW 5 mph 9 mph 65% 0.00 in 390 W/m2
11:30 60.4 °F 48.2 °F 30.04 in WSW 6 mph 8 mph 64% 0.00 in 389 W/m2
11:40 60.8 °F 48.1 °F 30.03 in SW 5 mph 8 mph 63% 0.00 in 386 W/m2
11:50 61.2 °F 48.5 °F 30.03 in SW 5 mph 7 mph 63% 0.00 in 382 W/m2
12:00 61.9 °F 48.7 °F 30.02 in SW 6 mph 9 mph 62% 0.00 in 376 W/m2
12:10 62.2 °F 48.2 °F 30.02 in SW 6 mph 9 mph 60% 0.00 in 368 W/m2
12:20 62.8 °F 48.2 °F 30.01 in SW 6 mph 8 mph 59% 0.00 in 327 W/m2
12:30 63.2 °F 48.2 °F 30.01 in SW 6 mph 10 mph 58% 0.00 in 350 W/m2
12:40 63.7 °F 48.6 °F 30.00 in SW 6 mph 12 mph 58% 0.00 in 338 W/m2
12:50 63.5 °F 48 °F 30.00 in SW 5 mph 12 mph 57% 0.00 in 326 W/m2
13:00 63.7 °F 48.2 °F 30.00 in SW 6 mph 10 mph 57% 0.00 in 312 W/m2
13:10 63.9 °F 47.4 °F 29.99 in SW 7 mph 12 mph 55% 0.00 in 297 W/m2
13:20 64 °F 47.5 °F 29.99 in SW 7 mph 11 mph 55% 0.00 in 281 W/m2
13:30 64.2 °F 47.2 °F 29.99 in SW 7 mph 10 mph 54% 0.00 in 264 W/m2
13:40 64 °F 47.1 °F 29.99 in SW 7 mph 12 mph 54% 0.00 in 246 W/m2
13:50 64 °F 47.1 °F 29.98 in SW 7 mph 12 mph 54% 0.00 in 227 W/m2
14:00 64 °F 47.1 °F 29.98 in SW 7 mph 12 mph 54% 0.00 in 207 W/m2
14:10 63.9 °F 47 °F 29.98 in SW 7 mph 11 mph 54% 0.00 in 187 W/m2
14:20 64 °F 47.1 °F 29.98 in SW 6 mph 9 mph 54% 0.00 in 166 W/m2
14:30 63.9 °F 46.9 °F 29.97 in SW 6 mph 10 mph 54% 0.00 in 145 W/m2
14:40 63.7 °F 46.7 °F 29.97 in SW 6 mph 9 mph 54% 0.00 in 124 W/m2
14:50 63.7 °F 46.7 °F 29.97 in SW 5 mph 8 mph 54% 0.00 in 103 W/m2
15:00 63.3 °F 46.4 °F 29.97 in SW 5 mph 8 mph 54% 0.00 in 83 W/m2
15:10 63.1 °F 46.7 °F 29.97 in SW 5 mph 8 mph 55% 0.00 in 63 W/m2
15:20 63 °F 46.5 °F 29.97 in SW 5 mph 7 mph 55% 0.00 in 44 W/m2
15:30 62.6 °F 46.2 °F 29.97 in SW 3 mph 6 mph 55% 0.00 in 26 W/m2
15:40 62.1 °F 46.6 °F 29.97 in SW 2 mph 7 mph 57% 0.00 in 10 W/m2
15:50 61.3 °F 45.9 °F 29.97 in South 2 mph 6 mph 57% 0.00 in 12 W/m2
16:00 59.8 °F 45 °F 29.97 in SSE 2 mph 5 mph 58% 0.00 in 6 W/m2
16:10 58.6 °F 44.3 °F 29.97 in SSE 1 mph 4 mph 59% 0.00 in 0 W/m2
16:20 57.6 °F 43.8 °F 29.97 in South 2 mph 4 mph 60% 0.00 in 0 W/m2
16:30 56.6 °F 43.7 °F 29.97 in SSW 1 mph 5 mph 62% 0.00 in 0 W/m2
16:40 55.5 °F 43.1 °F 29.97 in SW 2 mph 5 mph 63% 0.00 in 0 W/m2
16:50 54.9 °F 42.5 °F 29.97 in SW 1 mph 4 mph 63% 0.00 in 0 W/m2
17:00 53.9 °F 42 °F 29.97 in South 1 mph 5 mph 64% 0.00 in 0 W/m2
17:10 53.1 °F 41.6 °F 29.97 in SW 1 mph 3 mph 65% 0.00 in 0 W/m2
17:20 52.3 °F 41.7 °F 29.97 in South 2 mph 6 mph 67% 0.00 in 0 W/m2
17:30 51.6 °F 41.4 °F 29.98 in SSW 1 mph 5 mph 68% 0.00 in 0 W/m2
17:40 51.3 °F 41.1 °F 29.98 in South 2 mph 5 mph 68% 0.00 in 0 W/m2
17:50 50.5 °F 40.7 °F 29.98 in SSW 2 mph 5 mph 69% 0.00 in 0 W/m2
18:00 50 °F 40.2 °F 29.97 in Calm   4 mph 69% 0.00 in 0 W/m2
18:10 49.6 °F 40.3 °F 29.98 in East 1 mph 5 mph 70% 0.00 in 0 W/m2
18:20 49.4 °F 40 °F 29.98 in South 1 mph 5 mph 70% 0.00 in 0 W/m2
18:30 49 °F 40.4 °F 29.98 in SSE 1 mph 3 mph 72% 0.00 in 0 W/m2
18:40 48.6 °F 39.9 °F 29.98 in Calm   3 mph 72% 0.00 in 0 W/m2
18:50 48.1 °F 39.9 °F 29.98 in Calm   2 mph 73% 0.00 in 0 W/m2
19:00 47.8 °F 39.6 °F 29.98 in East 1 mph 2 mph 73% 0.00 in 0 W/m2
19:10 47.5 °F 39.6 °F 29.98 in Calm   3 mph 74% 0.00 in 0 W/m2
19:20 46.9 °F 39.1 °F 29.98 in WNW 1 mph 2 mph 74% 0.00 in 0 W/m2
19:30 46.7 °F 39.2 °F 29.98 in North 2 mph 3 mph 75% 0.00 in 0 W/m2
19:40 46.3 °F 39.5 °F 29.99 in NW 1 mph 3 mph 77% 0.00 in 0 W/m2
19:50 46 °F 39.2 °F 29.99 in Calm   2 mph 77% 0.00 in 0 W/m2
20:00 45.8 °F 39 °F 29.99 in Calm   3 mph 77% 0.00 in 0 W/m2
20:10 45.1 °F 38.7 °F 29.99 in NW 1 mph 2 mph 78% 0.00 in 0 W/m2
20:20 44.9 °F 38.7 °F 29.99 in West 1 mph 4 mph 79% 0.00 in 0 W/m2
20:30 44.6 °F 38.2 °F 29.99 in West 2 mph 6 mph 78% 0.00 in 0 W/m2
20:40 44.2 °F 38.1 °F 29.99 in Calm   3 mph 79% 0.00 in 0 W/m2
20:50 43.7 °F 37.6 °F 29.99 in NW 1 mph 4 mph 79% 0.00 in 0 W/m2
21:00 43.3 °F 37.6 °F 29.99 in Calm   3 mph 80% 0.00 in 0 W/m2
21:10 42.6 °F 36.6 °F 29.99 in Calm   2 mph 79% 0.00 in 0 W/m2
21:20 42.1 °F 36.4 °F 29.99 in NW 1 mph 3 mph 80% 0.00 in 0 W/m2
21:30 41.8 °F 36.4 °F 29.99 in NW 1 mph 4 mph 81% 0.00 in 0 W/m2
21:40 41.8 °F 37 °F 29.99 in West 1 mph 3 mph 83% 0.00 in 0 W/m2
Knjazevac, Serbia
Compliments of Weather Underground - 2 mb